Time;durP1;ratioP1;P1;durP2;ratioP2;P2;SDS_P1;SDS_P2;PMS_P1;PMS_P2;Temp;Humidity;BMP_temperature;BMP_pressure;BME280_temperature;BME280_humidity;BME280_pressure;Samples;Min_cycle;Max_cycle;Signal;HPM_P1;HPM_P2
2022/01/23 00:01:33;;;;;;;18.00;4.67;;;;;;;-1.16;77.72;100928.44;4977602;28;20227;-69
2022/01/23 00:04:00;;;;;;;14.10;4.40;;;;;;;-1.22;78.52;100923.44;4958969;28;20231;-69
2022/01/23 00:06:26;;;;;;;12.83;4.47;;;;;;;-1.16;78.41;100933.66;4977843;28;20318;-69
2022/01/23 00:08:53;;;;;;;11.40;4.07;;;;;;;-1.17;78.20;100927.59;4976153;28;20691;-68
2022/01/23 00:11:25;;;;;;;11.97;4.27;;;;;;;-1.24;78.44;100935.69;4979674;28;20228;-67
2022/01/23 00:19:12;;;;;;;13.00;4.40;;;;;;;-1.24;79.13;100925.25;4978327;28;21013;-69
2022/01/23 00:21:40;;;;;;;14.83;4.37;;;;;;;-1.24;79.50;100923.50;4957747;28;20330;-68
2022/01/23 00:32:11;;;;;;;13.83;4.97;;;;;;;-1.23;80.57;100925.19;4976801;28;20228;-69
2022/01/23 00:34:38;;;;;;;9.97;3.93;;;;;;;-1.24;80.24;100926.13;4979479;28;20237;-69
2022/01/23 00:37:04;;;;;;;14.47;4.57;;;;;;;-1.31;80.33;100935.94;4978396;28;20226;-70
2022/01/23 00:39:31;;;;;;;14.07;4.50;;;;;;;-1.28;80.98;100919.31;4979050;28;20255;-70
2022/01/23 00:41:57;;;;;;;19.37;4.57;;;;;;;-1.24;81.08;100914.81;4978667;28;20748;-68
2022/01/23 00:44:23;;;;;;;16.67;4.37;;;;;;;-1.28;80.68;100912.31;4977798;28;20739;-70
2022/01/23 00:46:51;;;;;;;17.30;4.77;;;;;;;-1.34;81.63;100912.53;4976998;28;20227;-69
2022/01/23 00:49:27;;;;;;;14.00;4.53;;;;;;;-1.32;82.00;100917.72;4979635;28;20318;-69
2022/01/23 00:51:54;;;;;;;17.00;4.17;;;;;;;-1.32;82.02;100923.78;4975781;28;20234;-64
2022/01/23 00:54:21;;;;;;;18.93;4.67;;;;;;;-1.30;82.08;100926.34;4977747;28;20231;-70
2022/01/23 00:56:48;;;;;;;13.83;4.60;;;;;;;-1.28;82.08;100925.38;4955202;28;20314;-67
2022/01/23 00:59:14;;;;;;;16.93;4.87;;;;;;;-1.32;82.35;100921.16;4976779;28;20231;-67
2022/01/23 01:01:41;;;;;;;11.83;4.47;;;;;;;-1.31;82.25;100925.50;4978491;28;21186;-68
2022/01/23 01:04:07;;;;;;;14.00;4.80;;;;;;;-1.31;82.66;100917.66;4955112;28;20216;-68
2022/01/23 01:06:34;;;;;;;14.27;4.47;;;;;;;-1.28;82.46;100924.53;4977922;28;20219;-67
2022/01/23 01:09:05;;;;;;;12.07;4.70;;;;;;;-1.24;82.48;100925.25;4975521;28;20238;-67
2022/01/23 01:11:56;;;;;;;16.17;4.80;;;;;;;-1.20;82.76;100926.84;4977434;28;20348;-68
2022/01/23 01:14:33;;;;;;;13.37;4.60;;;;;;;-1.24;82.59;100925.25;4976811;28;20231;-68
2022/01/23 01:17:14;;;;;;;15.90;4.67;;;;;;;-1.26;83.28;100930.53;4975568;28;20226;-68
2022/01/23 01:31:08;;;;;;;13.17;4.20;;;;;;;-1.30;83.49;100937.63;4976471;28;20226;-67
2022/01/23 01:36:18;;;;;;;13.77;4.00;;;;;;;-1.28;83.81;100948.88;4976461;28;20228;-69
2022/01/23 01:38:45;;;;;;;19.47;4.37;;;;;;;-1.29;83.36;100949.78;4975867;28;20322;-68
2022/01/23 01:41:14;;;;;;;12.47;4.80;;;;;;;-1.23;83.94;100943.47;4961787;28;20282;-67
2022/01/23 01:43:41;;;;;;;10.03;4.33;;;;;;;-1.23;84.07;100953.91;4977203;28;20239;-67
2022/01/23 01:46:07;;;;;;;12.47;4.47;;;;;;;-1.28;84.03;100941.03;4962502;28;20227;-68
2022/01/23 01:48:34;;;;;;;14.23;4.23;;;;;;;-1.31;84.22;100945.53;4976860;28;20234;-68
2022/01/23 01:51:01;;;;;;;14.10;4.50;;;;;;;-1.31;84.37;100941.16;4975794;28;20368;-68
2022/01/23 01:53:27;;;;;;;14.97;4.73;;;;;;;-1.32;84.77;100939.44;4975970;28;20243;-67
2022/01/23 01:55:56;;;;;;;18.13;4.53;;;;;;;-1.38;84.95;100944.91;4957688;28;20787;-69
2022/01/23 02:09:32;;;;;;;12.43;4.60;;;;;;;-1.29;84.81;100943.69;4974984;28;20233;-68
2022/01/23 02:14:39;;;;;;;14.67;4.47;;;;;;;-1.20;84.46;100942.50;4979873;28;20257;-67
2022/01/23 02:22:47;;;;;;;11.67;4.67;;;;;;;-1.20;84.75;100945.97;4960859;28;20233;-69
2022/01/23 02:55:27;;;;;;;13.20;4.47;;;;;;;-1.39;86.06;100974.50;4980341;28;20263;-68
2022/01/23 02:57:57;;;;;;;11.67;4.40;;;;;;;-1.31;85.69;100977.72;4981564;28;20230;-68
2022/01/23 03:00:31;;;;;;;12.23;4.27;;;;;;;-1.19;84.86;100980.78;4981761;28;20234;-69
2022/01/23 03:03:05;;;;;;;11.97;4.30;;;;;;;-1.19;85.04;100983.38;4959994;28;20247;-68
2022/01/23 03:08:16;;;;;;;12.13;4.33;;;;;;;-1.13;84.73;100986.59;4979494;28;20227;-68
2022/01/23 03:10:48;;;;;;;13.23;4.87;;;;;;;-1.04;84.00;100995.03;4979967;28;20233;-68
2022/01/23 03:24:18;;;;;;;11.60;4.00;;;;;;;-1.06;84.49;101008.97;4958360;28;20755;-68
2022/01/23 03:26:31;;;;;;;14.73;4.33;;;;;;;-1.04;84.58;101010.69;4962323;28;20242;-69
2022/01/23 03:31:39;;;;;;;12.13;4.53;;;;;;;-1.11;84.47;101013.50;4942935;28;20263;-67
2022/01/23 03:34:06;;;;;;;12.07;4.40;;;;;;;-1.10;84.51;101028.28;4961554;28;20724;-69
2022/01/23 03:36:33;;;;;;;12.70;4.13;;;;;;;-1.08;84.22;101023.88;4960620;28;20224;-69
2022/01/23 03:39:00;;;;;;;14.07;4.57;;;;;;;-1.09;84.69;101023.91;4960693;28;20311;-68
2022/01/23 03:41:26;;;;;;;13.33;4.37;;;;;;;-1.13;85.01;101027.53;4961605;28;20224;-68
2022/01/23 03:43:53;;;;;;;12.97;4.37;;;;;;;-1.09;84.71;101031.75;4959808;28;20779;-68
2022/01/23 03:51:49;;;;;;;12.47;4.47;;;;;;;-1.15;84.59;101037.19;4954511;28;20228;-68
2022/01/23 03:54:16;;;;;;;12.13;4.77;;;;;;;-1.15;84.75;101047.63;4959246;28;20318;-68
2022/01/23 03:56:43;;;;;;;13.37;4.70;;;;;;;-1.14;85.08;101047.59;4959936;28;20722;-68
2022/01/23 03:59:09;;;;;;;13.23;4.40;;;;;;;-1.16;84.83;101045.94;4960250;28;20710;-68
2022/01/23 04:01:36;;;;;;;12.93;4.07;;;;;;;-1.00;84.55;101060.16;4960260;28;20339;-69
2022/01/23 04:04:10;;;;;;;11.87;4.07;;;;;;;-1.04;84.38;101068.16;4958948;28;20313;-68
2022/01/23 04:06:38;;;;;;;15.43;4.60;;;;;;;-1.03;84.36;101062.88;4951148;28;20310;-68
2022/01/23 04:09:05;;;;;;;13.23;3.80;;;;;;;-1.02;84.57;101058.50;4942553;28;20302;-68
2022/01/23 04:11:31;;;;;;;16.80;4.50;;;;;;;-1.09;84.45;101055.25;4960202;28;20245;-68
2022/01/23 04:14:04;;;;;;;18.13;4.30;;;;;;;-1.08;84.72;101064.78;4964764;28;20343;-68
2022/01/23 04:19:11;;;;;;;10.73;4.13;;;;;;;-1.16;84.86;101061.63;4978270;28;20772;-68
2022/01/23 04:32:59;;;;;;;13.63;4.13;;;;;;;-1.05;84.74;101088.19;4976439;28;20820;-67
2022/01/23 04:59:55;;;;;;;9.37;3.97;;;;;;;-1.10;85.35;101070.09;4175054;28;20237;-68
2022/01/23 05:05:08;;;;;;;13.63;4.60;;;;;;;-1.15;84.88;101077.22;4168730;28;20245;-68
2022/01/23 05:07:35;;;;;;;14.53;4.60;;;;;;;-1.16;85.01;101075.50;4161638;28;20316;-69
2022/01/23 05:10:02;;;;;;;13.77;4.37;;;;;;;-1.18;85.73;101077.31;4194547;28;20782;-67
2022/01/23 05:12:32;;;;;;;14.33;4.10;;;;;;;-1.17;85.47;101083.38;4198859;28;23025;-68
2022/01/23 05:14:58;;;;;;;16.03;4.47;;;;;;;-1.19;85.98;101095.69;4162271;28;20306;-70
2022/01/23 05:17:25;;;;;;;14.77;4.40;;;;;;;-1.13;85.58;101105.88;4165861;28;20236;-69
2022/01/23 05:19:53;;;;;;;11.67;4.03;;;;;;;-1.22;85.92;101100.97;4170554;28;20287;-67
2022/01/23 05:25:19;;;;;;;16.27;4.50;;;;;;;-1.25;86.38;101109.78;4170147;28;20250;-69
2022/01/23 05:27:45;;;;;;;13.97;4.20;;;;;;;-1.31;86.54;101113.47;4194659;28;21443;-69
2022/01/23 05:30:12;;;;;;;14.00;4.53;;;;;;;-1.27;86.77;101120.25;4160377;28;20245;-68
2022/01/23 05:32:41;;;;;;;16.83;4.33;;;;;;;-1.32;86.90;101122.19;4177888;28;20234;-69
2022/01/23 05:35:09;;;;;;;16.00;4.37;;;;;;;-1.36;87.20;101115.38;4168872;28;20279;-68
2022/01/23 05:37:37;;;;;;;13.20;4.33;;;;;;;-1.41;87.43;101113.81;4158839;28;20315;-68
2022/01/23 05:40:06;;;;;;;14.20;4.33;;;;;;;-1.33;87.30;101120.50;4187009;28;20338;-68
2022/01/23 05:42:32;;;;;;;17.00;4.60;;;;;;;-1.27;87.05;101112.44;4162426;28;20408;-67
2022/01/23 05:44:59;;;;;;;13.63;5.20;;;;;;;-1.23;86.73;101114.97;4187164;28;21851;-68
2022/01/23 05:47:25;;;;;;;13.33;4.57;;;;;;;-1.23;86.88;101114.97;4177859;28;20241;-68
2022/01/23 05:49:52;;;;;;;14.30;4.67;;;;;;;-1.22;86.99;101124.47;4194636;28;20697;-69
2022/01/23 05:52:18;;;;;;;13.77;3.93;;;;;;;-1.16;86.35;101126.91;4153150;28;23714;-69
2022/01/23 05:54:45;;;;;;;15.07;4.33;;;;;;;-1.23;87.16;101133.22;4170917;28;23024;-67
2022/01/23 05:57:11;;;;;;;14.20;4.33;;;;;;;-1.11;86.98;101135.41;4172064;28;20312;-68
2022/01/23 05:59:38;;;;;;;13.37;4.07;;;;;;;-1.17;87.01;101140.84;4170683;28;20246;-68
2022/01/23 06:02:05;;;;;;;18.00;4.37;;;;;;;-1.10;86.98;101147.56;4170173;28;20240;-67
2022/01/23 06:04:31;;;;;;;11.53;4.50;;;;;;;-1.13;86.90;101140.69;4161987;28;20299;-68
2022/01/23 06:06:59;;;;;;;10.30;4.33;;;;;;;-1.18;86.96;101144.38;4153303;28;20257;-69
2022/01/23 06:09:26;;;;;;;10.23;4.57;;;;;;;-1.10;86.82;101147.56;4174836;28;20234;-68
2022/01/23 06:11:54;;;;;;;16.33;5.37;;;;;;;-1.19;87.17;101153.13;4188534;28;20241;-68
2022/01/23 06:14:20;;;;;;;11.63;4.30;;;;;;;-1.18;87.38;101160.03;4178375;28;20229;-70
2022/01/23 06:16:47;;;;;;;13.80;4.30;;;;;;;-1.06;87.13;101159.59;4174574;28;20245;-67
2022/01/23 06:19:14;;;;;;;14.53;4.97;;;;;;;-0.98;87.21;101164.59;4182551;28;20309;-68
2022/01/23 06:21:41;;;;;;;14.47;4.60;;;;;;;-1.05;86.93;101161.34;4167431;28;23290;-68
2022/01/23 06:24:11;;;;;;;14.50;4.63;;;;;;;-1.21;87.25;101166.22;4189390;28;20229;-67
2022/01/23 06:26:45;;;;;;;10.53;4.47;;;;;;;-1.12;87.24;101167.69;4191389;28;25792;-69
2022/01/23 06:29:14;;;;;;;15.23;4.67;;;;;;;-1.10;87.25;101165.84;4162006;28;20266;-68
2022/01/23 06:31:42;;;;;;;13.53;4.67;;;;;;;-1.03;86.87;101174.31;4161670;28;20272;-68
2022/01/23 06:34:10;;;;;;;13.10;4.60;;;;;;;-1.02;87.11;101181.28;4157344;28;20249;-68
2022/01/23 06:36:38;;;;;;;11.53;4.60;;;;;;;-1.14;86.89;101180.78;4182299;28;20383;-70
2022/01/23 06:39:06;;;;;;;17.53;5.10;;;;;;;-1.19;87.45;101181.84;4190892;28;20317;-69
2022/01/23 06:41:33;;;;;;;14.03;4.90;;;;;;;-1.10;87.18;101182.38;4170878;28;20343;-67
2022/01/23 06:44:00;;;;;;;12.77;5.13;;;;;;;-1.05;86.85;101187.47;4165141;28;21058;-67
2022/01/23 06:46:27;;;;;;;10.60;4.50;;;;;;;-1.07;87.18;101197.09;4174779;28;20360;-67
2022/01/23 06:48:53;;;;;;;12.53;4.77;;;;;;;-1.05;87.16;101203.13;4175343;28;20252;-67
2022/01/23 06:51:19;;;;;;;16.50;4.70;;;;;;;-0.99;87.41;101209.88;4174117;28;20859;-69
2022/01/23 06:53:46;;;;;;;14.77;4.67;;;;;;;-0.92;87.00;101209.63;4179760;28;21869;-70
2022/01/23 06:56:13;;;;;;;16.50;5.40;;;;;;;-0.93;87.32;101217.53;4166307;28;21244;-68
2022/01/23 06:58:40;;;;;;;12.43;4.27;;;;;;;-0.95;87.15;101224.56;4188030;28;22648;-70
2022/01/23 07:01:07;;;;;;;16.47;5.93;;;;;;;-0.93;87.06;101238.44;4180162;28;20229;-67
2022/01/23 07:03:35;;;;;;;13.23;4.83;;;;;;;-1.08;87.94;101230.22;4173985;28;20236;-69
2022/01/23 07:06:01;;;;;;;13.60;4.33;;;;;;;-0.96;87.82;101242.00;4164534;28;20251;-68
2022/01/23 07:08:28;;;;;;;16.77;5.00;;;;;;;-0.99;88.30;101252.53;4210746;28;20236;-71
2022/01/23 07:10:55;;;;;;;13.67;4.50;;;;;;;-0.89;88.02;101248.72;4203192;28;20649;-69
2022/01/23 07:13:22;;;;;;;9.80;4.73;;;;;;;-0.84;87.76;101251.19;4163372;28;20835;-68
2022/01/23 07:15:48;;;;;;;13.03;4.63;;;;;;;-0.88;88.12;101263.47;4167576;28;21217;-68
2022/01/23 07:18:15;;;;;;;12.07;4.73;;;;;;;-0.94;87.80;101258.44;4171327;28;22082;-68
2022/01/23 07:20:42;;;;;;;16.73;5.37;;;;;;;-0.82;87.56;101267.66;4185997;28;20238;-68
2022/01/23 07:23:09;;;;;;;14.17;5.00;;;;;;;-0.71;87.13;101262.06;4178163;28;20340;-68
2022/01/23 07:25:36;;;;;;;16.63;4.47;;;;;;;-0.73;87.03;101272.53;4177874;28;20295;-68
2022/01/23 07:28:05;;;;;;;15.37;4.67;;;;;;;-0.73;87.08;101269.94;4147064;28;20333;-70
2022/01/23 07:30:38;;;;;;;14.43;4.53;;;;;;;-0.64;86.78;101268.78;4153488;28;20245;-67
2022/01/23 07:33:05;;;;;;;15.10;4.77;;;;;;;-0.69;86.67;101270.69;4178074;28;21234;-68
2022/01/23 07:35:32;;;;;;;13.73;4.80;;;;;;;-0.66;86.84;101279.31;4160878;28;20265;-72
2022/01/23 07:37:59;;;;;;;11.60;4.17;;;;;;;-0.59;86.58;101279.06;4169774;28;21329;-67
2022/01/23 07:40:25;;;;;;;15.00;4.70;;;;;;;-0.60;86.05;101278.22;4173779;28;20236;-70
2022/01/23 07:42:52;;;;;;;12.60;4.30;;;;;;;-0.63;86.58;101288.81;4200751;28;20275;-65
2022/01/23 07:45:19;;;;;;;17.93;4.87;;;;;;;-0.56;85.68;101295.53;4189263;28;21507;-64
2022/01/23 07:47:46;;;;;;;10.67;3.77;;;;;;;-0.67;85.08;101297.63;4175065;28;20232;-64
2022/01/23 07:50:12;;;;;;;10.30;3.53;;;;;;;-0.65;84.20;101299.28;4170603;28;20521;-65
2022/01/23 07:52:39;;;;;;;12.70;4.17;;;;;;;-0.68;82.42;101301.16;4165951;28;20228;-66
2022/01/23 07:55:09;;;;;;;9.87;3.17;;;;;;;-0.85;81.37;101315.63;4183973;28;22533;-64
2022/01/23 07:57:36;;;;;;;8.60;3.73;;;;;;;-0.77;80.72;101309.28;4198237;28;21714;-66
2022/01/23 08:00:08;;;;;;;10.73;3.83;;;;;;;-0.76;80.38;101317.09;4166630;28;21450;-64
2022/01/23 08:02:34;;;;;;;10.60;3.27;;;;;;;-0.76;80.27;101327.53;4166876;28;20235;-68
2022/01/23 08:05:01;;;;;;;7.73;3.10;;;;;;;-0.72;79.25;101323.09;4177220;28;20785;-65
2022/01/23 08:09:59;;;;;;;7.63;3.00;;;;;;;-0.61;78.36;101349.69;4186904;28;20473;-67
2022/01/23 08:12:27;;;;;;;7.73;3.00;;;;;;;-0.58;77.92;101352.22;4197446;28;20240;-64
2022/01/23 08:14:55;;;;;;;8.90;3.33;;;;;;;-0.48;78.23;101353.63;4192742;28;20276;-65
2022/01/23 08:17:25;;;;;;;7.73;3.13;;;;;;;-0.45;78.14;101344.81;4176542;28;20944;-65
2022/01/23 08:19:52;;;;;;;9.40;3.40;;;;;;;-0.71;77.13;101348.28;4170491;28;20238;-64
2022/01/23 08:22:20;;;;;;;9.70;2.90;;;;;;;-0.90;76.64;101348.88;4175620;28;20229;-66
2022/01/23 08:24:47;;;;;;;9.13;2.57;;;;;;;-0.88;76.16;101349.69;4191672;28;20348;-65
2022/01/23 08:27:14;;;;;;;9.73;3.47;;;;;;;-0.92;75.55;101355.91;4164663;28;20345;-65
2022/01/23 08:29:41;;;;;;;6.63;2.57;;;;;;;-0.95;74.32;101356.03;4169560;28;20321;-66
2022/01/23 08:32:08;;;;;;;6.13;2.10;;;;;;;-1.05;73.73;101362.47;4176615;28;20298;-69
2022/01/23 08:34:35;;;;;;;6.47;2.40;;;;;;;-1.09;73.00;101366.06;4173313;28;22576;-66
2022/01/23 08:37:04;;;;;;;8.60;2.77;;;;;;;-1.08;73.33;101378.19;4156229;28;20249;-66
2022/01/23 08:39:34;;;;;;;8.10;2.17;;;;;;;-0.89;71.77;101375.88;4164901;28;22274;-66
2022/01/23 08:42:09;;;;;;;5.03;2.17;;;;;;;-0.73;71.35;101382.31;4177645;28;20237;-67
2022/01/23 08:44:36;;;;;;;5.60;1.97;;;;;;;-0.38;69.38;101392.53;4192869;28;22882;-64
2022/01/23 08:47:06;;;;;;;4.83;1.73;;;;;;;1.43;65.94;101401.53;4219509;28;20239;-64
2022/01/23 08:49:33;;;;;;;4.83;1.97;;;;;;;3.28;58.45;101412.59;4180720;28;23853;-66
2022/01/23 08:52:02;;;;;;;5.17;2.27;;;;;;;4.61;51.14;101420.72;4251334;28;20238;-65
2022/01/23 08:54:29;;;;;;;5.87;2.10;;;;;;;3.80;51.03;101413.50;4164826;28;20666;-66
2022/01/23 08:56:56;;;;;;;8.73;2.23;;;;;;;2.88;54.22;101414.44;4190925;28;23490;-68
2022/01/23 08:59:24;;;;;;;4.17;1.97;;;;;;;2.60;54.95;101428.00;4221476;28;20233;-66
2022/01/23 09:01:51;;;;;;;4.90;2.10;;;;;;;4.58;50.77;101431.44;4250864;28;20263;-64
2022/01/23 09:04:18;;;;;;;6.40;2.30;;;;;;;6.22;43.89;101456.50;4182805;28;20245;-64
2022/01/23 09:06:46;;;;;;;5.90;2.30;;;;;;;5.61;45.26;101449.50;4184794;28;20235;-67
2022/01/23 09:09:20;;;;;;;5.70;2.30;;;;;;;4.35;47.81;101448.47;4190296;28;20273;-65
2022/01/23 09:14:20;;;;;;;14.47;3.13;;;;;;;2.68;52.78;101441.66;4187521;28;20241;-65
2022/01/23 09:16:51;;;;;;;7.63;3.03;;;;;;;2.30;54.42;101441.59;4177751;28;21272;-66
2022/01/23 09:19:19;;;;;;;9.20;3.13;;;;;;;2.08;55.74;101446.91;4199697;28;20376;-67
2022/01/23 09:21:49;;;;;;;7.10;2.70;;;;;;;1.72;56.75;101444.09;4168663;28;21275;-65
2022/01/23 09:24:21;;;;;;;10.10;2.57;;;;;;;1.58;57.26;101442.88;4197213;28;20242;-66
2022/01/23 09:26:53;;;;;;;8.03;3.03;;;;;;;1.22;58.41;101445.22;4193958;28;20915;-64
2022/01/23 09:29:36;;;;;;;7.20;2.63;;;;;;;1.42;58.39;101444.41;4199199;28;21338;-66
2022/01/23 09:32:11;;;;;;;8.60;2.53;;;;;;;2.65;56.42;101452.31;4203118;28;21224;-64
2022/01/23 09:34:39;;;;;;;7.40;2.30;;;;;;;5.37;48.01;101468.44;4233364;28;22354;-66
2022/01/23 09:37:09;;;;;;;4.50;2.00;;;;;;;8.32;39.91;101489.06;4244169;28;21112;-64
2022/01/23 09:39:36;;;;;;;3.87;2.20;;;;;;;10.29;33.34;101505.03;4224296;28;20280;-65
2022/01/23 09:42:23;;;;;;;6.30;2.20;;;;;;;7.90;36.07;101480.38;4197836;28;20296;-66
2022/01/23 09:44:57;;;;;;;8.03;2.20;;;;;;;7.65;37.77;101475.84;4207009;28;20317;-70
2022/01/23 09:47:25;;;;;;;6.67;2.93;;;;;;;7.32;37.29;101474.44;4164622;28;21563;-65
2022/01/23 09:49:52;;;;;;;8.97;2.93;;;;;;;5.99;39.42;101470.22;4180982;28;21421;-67
2022/01/23 09:52:24;;;;;;;7.20;3.03;;;;;;;4.79;42.74;101455.81;4207738;28;20407;-66
2022/01/23 09:55:01;;;;;;;8.00;2.70;;;;;;;4.14;44.88;101458.31;4197505;28;20512;-66
2022/01/23 09:57:31;;;;;;;7.00;2.90;;;;;;;3.47;46.56;101446.75;4229507;28;20240;-63
2022/01/23 09:59:59;;;;;;;9.27;2.97;;;;;;;3.15;48.93;101443.88;4222152;28;20294;-65
2022/01/23 10:02:26;;;;;;;9.37;3.63;;;;;;;3.56;47.38;101446.31;4190866;28;21871;-66
2022/01/23 10:04:59;;;;;;;9.23;3.07;;;;;;;3.55;47.28;101445.44;4187413;28;20232;-65
2022/01/23 10:07:27;;;;;;;9.47;3.50;;;;;;;3.13;49.04;101428.16;4206468;28;20244;-65
2022/01/23 10:10:09;;;;;;;8.67;3.37;;;;;;;3.28;49.02;101431.84;4206039;28;20250;-65
2022/01/23 10:12:46;;;;;;;4.33;2.07;;;;;;;3.04;49.30;101428.59;4174290;28;20282;-67
2022/01/23 10:15:13;;;;;;;5.27;2.57;;;;;;;2.86;49.61;101430.31;4180915;28;20249;-65
2022/01/23 10:17:40;;;;;;;6.73;2.47;;;;;;;1.91;52.53;101426.63;4173164;28;20242;-66
2022/01/23 10:20:09;;;;;;;5.43;2.57;;;;;;;1.84;53.73;101435.69;4175469;28;20301;-67
2022/01/23 10:22:36;;;;;;;8.03;2.80;;;;;;;2.27;52.61;101441.72;4205429;28;21082;-66
2022/01/23 10:25:05;;;;;;;5.90;2.50;;;;;;;2.10;51.75;101440.69;4161552;28;20245;-67
2022/01/23 10:27:52;;;;;;;4.77;2.40;;;;;;;1.58;53.44;101442.00;4182227;28;20378;-65
2022/01/23 10:30:22;;;;;;;5.97;2.60;;;;;;;1.59;54.25;101444.59;4173365;28;21021;-65
2022/01/23 10:33:00;;;;;;;6.70;2.57;;;;;;;1.92;52.50;101440.59;4222460;28;22253;-68
2022/01/23 10:35:27;;;;;;;6.43;2.43;;;;;;;1.79;52.79;101440.28;4185448;28;20236;-66
2022/01/23 10:37:55;;;;;;;7.53;2.83;;;;;;;2.08;52.91;101442.53;4199813;28;20237;-73
2022/01/23 10:40:27;;;;;;;8.93;2.77;;;;;;;2.47;52.15;101446.09;4182507;28;21358;-68
2022/01/23 10:46:35;;;;;;;12.20;2.70;;;;;;;2.97;50.29;101442.94;4197872;28;25077;-62
2022/01/23 10:48:36;;;;;;;9.13;2.97;;;;;;;2.42;51.26;101451.56;4191496;28;20246;-66
2022/01/23 10:51:19;;;;;;;5.73;2.20;;;;;;;2.45;50.34;101445.31;4184142;28;20579;-65
2022/01/23 10:54:16;;;;;;;10.17;2.57;;;;;;;2.13;50.66;101450.22;4201877;28;20974;-65
2022/01/23 10:56:49;;;;;;;7.60;2.70;;;;;;;2.10;50.90;101445.09;4205800;28;22347;-65
2022/01/23 10:59:15;;;;;;;4.40;2.40;;;;;;;1.97;50.95;101443.91;4200111;28;20268;-66
2022/01/23 11:02:04;;;;;;;12.67;2.40;;;;;;;2.65;50.44;101445.28;4213851;28;22638;-65
2022/01/23 11:04:49;;;;;;;8.90;2.13;;;;;;;2.52;49.95;101455.47;4223833;28;21855;-66
2022/01/23 11:07:16;;;;;;;7.13;2.53;;;;;;;2.75;48.97;101450.97;4212443;28;20240;-66
2022/01/23 11:09:43;;;;;;;5.50;2.30;;;;;;;3.00;49.19;101441.94;4226723;28;20245;-65
2022/01/23 11:12:22;;;;;;;10.23;3.27;;;;;;;2.53;48.55;101444.06;4193397;28;20321;-66
2022/01/23 11:17:52;;;;;;;9.33;2.87;;;;;;;2.26;50.38;101456.63;4208012;28;20312;-65
2022/01/23 11:20:30;;;;;;;9.83;2.73;;;;;;;2.52;49.80;101447.59;4202727;28;26420;-66
2022/01/23 11:23:11;;;;;;;11.77;3.07;;;;;;;2.64;49.12;101455.88;4223064;28;21014;-67
2022/01/23 11:25:40;;;;;;;10.40;2.50;;;;;;;2.58;49.63;101457.00;4207648;28;20231;-65
2022/01/23 11:28:07;;;;;;;7.13;3.07;;;;;;;2.70;48.87;101460.84;4291832;28;21674;-65
2022/01/23 11:30:36;;;;;;;7.90;2.47;;;;;;;2.33;49.22;101463.31;4179012;28;20262;-67
2022/01/23 11:33:03;;;;;;;4.80;2.37;;;;;;;1.80;49.74;101457.72;4213300;28;23598;-67
2022/01/23 11:35:30;;;;;;;5.63;2.60;;;;;;;1.22;51.73;101460.94;4184008;28;20283;-67
2022/01/23 11:37:57;;;;;;;7.77;2.87;;;;;;;1.21;52.25;101465.31;4219922;28;20238;-67
2022/01/23 11:54:05;;;;;;;7.73;2.87;;;;;;;1.09;52.40;101478.88;4194483;28;21829;-69
2022/01/23 11:56:37;;;;;;;5.40;2.70;;;;;;;0.92;52.20;101478.69;4188528;28;20233;-67
2022/01/23 11:59:28;;;;;;;9.10;2.77;;;;;;;0.58;53.03;101474.66;4210782;28;20241;-68
2022/01/23 12:02:11;;;;;;;7.43;2.90;;;;;;;0.46;54.38;101475.13;4220923;28;20322;-70
2022/01/23 12:04:39;;;;;;;7.73;2.93;;;;;;;0.45;54.14;101469.03;4200967;28;21579;-66
2022/01/23 12:07:13;;;;;;;8.17;2.83;;;;;;;0.65;54.04;101465.69;4179330;28;21040;-68
2022/01/23 12:09:42;;;;;;;8.87;3.33;;;;;;;0.91;53.18;101471.72;4182688;28;20245;-67
2022/01/23 12:17:16;;;;;;;7.27;3.50;;;;;;;0.71;52.67;101468.09;4165995;28;22208;-67
2022/01/23 12:19:47;;;;;;;8.70;3.40;;;;;;;0.68;52.89;101470.81;4175303;28;22362;-67
2022/01/23 12:22:35;;;;;;;7.63;3.60;;;;;;;0.86;52.58;101478.91;4159015;28;20317;-68
2022/01/23 12:25:15;;;;;;;7.67;2.83;;;;;;;0.77;53.18;101480.09;4175548;28;20243;-68
2022/01/23 12:27:42;;;;;;;8.63;3.10;;;;;;;1.01;52.92;101488.81;4194262;28;20237;-68
2022/01/23 12:30:14;;;;;;;6.67;2.73;;;;;;;0.73;52.58;101489.84;4186974;28;20249;-69
2022/01/23 12:32:46;;;;;;;11.73;3.37;;;;;;;0.88;52.84;101488.41;4192706;28;21880;-68
2022/01/23 12:35:13;;;;;;;11.00;3.60;;;;;;;1.11;52.73;101491.94;4177395;28;20234;-67
2022/01/23 12:38:02;;;;;;;7.37;3.10;;;;;;;1.12;51.26;101506.75;4166886;28;20338;-65
2022/01/23 12:40:31;;;;;;;5.93;2.43;;;;;;;0.65;51.72;101517.22;4155836;28;20281;-66
2022/01/23 12:43:08;;;;;;;5.60;2.57;;;;;;;0.77;52.07;101511.53;4160959;28;20526;-66
2022/01/23 12:45:56;;;;;;;8.13;3.10;;;;;;;0.74;51.88;101522.97;4202776;28;20252;-65
2022/01/23 12:48:26;;;;;;;9.20;3.33;;;;;;;0.83;52.05;101517.41;4177517;28;21503;-66
2022/01/23 12:50:57;;;;;;;8.00;3.23;;;;;;;1.03;51.38;101523.66;4207891;28;20238;-68
2022/01/23 12:53:46;;;;;;;9.10;2.90;;;;;;;1.24;50.85;101533.38;4206421;28;21288;-65
2022/01/23 12:56:18;;;;;;;5.93;2.80;;;;;;;1.22;50.84;101537.81;4222446;28;20479;-66
2022/01/23 12:58:53;;;;;;;10.63;3.20;;;;;;;1.36;50.43;101539.03;4202365;28;21679;-64
2022/01/23 13:01:23;;;;;;;14.20;4.00;;;;;;;1.60;50.06;101540.72;4261693;28;20244;-66
2022/01/23 13:04:01;;;;;;;13.10;4.00;;;;;;;1.60;49.83;101547.75;4276118;28;20230;-66
2022/01/23 13:06:34;;;;;;;8.60;3.40;;;;;;;1.72;49.17;101549.03;4175745;28;21067;-66
2022/01/23 13:12:10;;;;;;;7.77;3.33;;;;;;;1.13;50.15;101551.25;4238473;28;20242;-69
2022/01/23 13:14:56;;;;;;;11.57;3.73;;;;;;;1.16;50.83;101561.63;4187759;28;20272;-65
2022/01/23 13:17:51;;;;;;;10.10;3.50;;;;;;;1.01;50.70;101557.81;4211949;28;21846;-66
2022/01/23 13:29:54;;;;;;;7.93;3.33;;;;;;;0.89;51.13;101563.50;4200359;28;21480;-65
2022/01/23 13:32:18;;;;;;;11.53;3.93;;;;;;;1.06;50.79;101568.13;4188779;28;20710;-65
2022/01/23 13:34:50;;;;;;;9.87;3.30;;;;;;;1.25;50.91;101561.28;4169157;28;21404;-65
2022/01/23 13:37:22;;;;;;;9.93;3.53;;;;;;;1.35;50.56;101563.56;4174048;28;20233;-66
2022/01/23 13:39:55;;;;;;;10.40;3.47;;;;;;;1.21;49.61;101558.84;4168594;28;20233;-64
2022/01/23 13:48:39;;;;;;;9.17;3.07;;;;;;;1.11;50.39;101573.22;4197794;28;20237;-64
2022/01/23 13:59:49;;;;;;;8.07;3.93;;;;;;;1.62;48.71;101580.03;4179543;28;20306;-63
2022/01/23 14:02:35;;;;;;;12.27;4.10;;;;;;;1.55;48.75;101579.41;4190456;28;20236;-66
2022/01/23 14:05:25;;;;;;;10.17;4.20;;;;;;;1.39;49.06;101578.28;4174025;28;20675;-65
2022/01/23 14:07:57;;;;;;;9.37;3.77;;;;;;;0.87;50.31;101567.06;4165529;28;23429;-66
2022/01/23 14:10:27;;;;;;;8.37;4.00;;;;;;;0.75;51.02;101570.97;4193406;28;20237;-67
2022/01/23 14:13:05;;;;;;;10.53;4.07;;;;;;;0.76;51.29;101573.56;4194237;28;20336;-65
2022/01/23 14:15:31;;;;;;;9.53;3.93;;;;;;;0.71;51.59;101569.41;4155796;28;20301;-65
2022/01/23 14:18:05;;;;;;;10.33;3.70;;;;;;;0.66;52.29;101574.81;4166355;28;20273;-64
2022/01/23 14:20:45;;;;;;;9.77;4.00;;;;;;;0.56;52.27;101570.75;4168377;28;20237;-65
2022/01/23 14:23:13;;;;;;;10.57;3.83;;;;;;;0.60;52.34;101578.47;4172915;28;20374;-64
2022/01/23 14:25:54;;;;;;;9.03;3.70;;;;;;;0.49;52.12;101583.25;4169181;28;20240;-65
2022/01/23 14:28:24;;;;;;;7.27;3.60;;;;;;;0.48;52.62;101589.38;4170953;28;21204;-64
2022/01/23 14:30:54;;;;;;;6.73;3.47;;;;;;;0.33;52.79;101587.28;4154810;28;20583;-67
2022/01/23 14:33:25;;;;;;;10.20;3.97;;;;;;;0.01;54.26;101586.56;4146414;28;20231;-66
2022/01/23 14:36:22;;;;;;;10.07;4.10;;;;;;;-0.23;55.14;101593.44;4178872;28;20334;-66
2022/01/23 14:38:53;;;;;;;11.83;4.57;;;;;;;-0.31;55.71;101592.78;4167752;28;20729;-65
2022/01/23 14:41:20;;;;;;;14.47;4.20;;;;;;;-0.25;55.46;101598.69;4179749;28;20232;-65
2022/01/23 14:43:47;;;;;;;11.07;4.03;;;;;;;-0.24;55.86;101594.31;4174205;28;20395;-65
2022/01/23 14:46:14;;;;;;;15.03;5.20;;;;;;;-0.29;55.72;101596.22;4172129;28;20417;-67
2022/01/23 14:48:46;;;;;;;10.23;4.40;;;;;;;-0.25;55.33;101592.59;4174014;28;20234;-66
2022/01/23 14:51:21;;;;;;;10.40;4.10;;;;;;;-0.39;55.26;101598.25;4165396;28;20252;-68
2022/01/23 14:53:49;;;;;;;9.00;4.27;;;;;;;-0.50;55.96;101600.34;4175264;28;20234;-66
2022/01/23 14:56:17;;;;;;;11.30;4.33;;;;;;;-0.58;56.22;101589.25;4154308;28;20403;-68
2022/01/23 14:58:44;;;;;;;9.63;4.03;;;;;;;-0.61;56.93;101592.78;4205348;28;20317;-65